createdAt,value
2018-10-18T00:00:04.518Z,98079.52
2018-10-18T00:00:36.133Z,98077.36
2018-10-18T00:01:07.729Z,98077.78
2018-10-18T00:01:39.337Z,98079.44
2018-10-18T00:02:11.009Z,98078.99
2018-10-18T00:02:42.600Z,98075.58
2018-10-18T00:03:14.279Z,98079.41
2018-10-18T00:03:45.855Z,98077.28
2018-10-18T00:04:17.448Z,98077.66
2018-10-18T00:04:49.040Z,98093.87
2018-10-18T00:05:20.622Z,98079.34
2018-10-18T00:05:52.228Z,98078.05
2018-10-18T00:06:23.835Z,98080.98
2018-10-18T00:06:55.444Z,98079.70
2018-10-18T00:07:27.065Z,98079.25
2018-10-18T00:07:58.698Z,98077.05
2018-10-18T00:08:30.311Z,98077.47
2018-10-18T00:09:01.908Z,98076.18
2018-10-18T00:09:33.514Z,98077.85
2018-10-18T00:10:05.119Z,98071.88
2018-10-18T00:10:36.703Z,98076.99
2018-10-18T00:11:08.293Z,98074.85
2018-10-18T00:11:39.886Z,98082.97
2018-10-18T00:12:11.562Z,98076.99
2018-10-18T00:12:43.124Z,98076.56
2018-10-18T00:13:14.717Z,98078.26
2018-10-18T00:13:46.322Z,98079.11
2018-10-18T00:14:18.022Z,98072.30
2018-10-18T00:14:49.554Z,98074.84
2018-10-18T00:15:21.149Z,98077.84
2018-10-18T00:15:52.865Z,98071.42
2018-10-18T00:16:24.452Z,98070.56
2018-10-18T00:16:56.063Z,98076.11
2018-10-18T00:17:27.680Z,98075.69
2018-10-18T00:17:59.303Z,98073.13
2018-10-18T00:18:30.902Z,98071.06
2018-10-18T00:19:02.500Z,98073.20
2018-10-18T00:19:34.104Z,98072.34
2018-10-18T00:20:05.739Z,98071.07
2018-10-18T00:20:37.359Z,98070.21
2018-10-18T00:21:08.947Z,98074.48
2018-10-18T00:21:40.537Z,98070.23
2018-10-18T00:22:12.147Z,98070.23
2018-10-18T00:22:43.765Z,98070.66
2018-10-18T00:23:15.352Z,98071.09
2018-10-18T00:23:46.949Z,98065.12
2018-10-18T00:24:18.592Z,98068.11
2018-10-18T00:24:50.183Z,98077.08
2018-10-18T00:25:21.798Z,98067.30
2018-10-18T00:25:53.401Z,98064.73
2018-10-18T00:26:24.997Z,98068.59
2018-10-18T00:26:56.602Z,98064.77
2018-10-18T00:27:28.235Z,98065.67
2018-10-18T00:27:59.829Z,98069.52
2018-10-18T00:28:31.443Z,98066.13
2018-10-18T00:29:03.050Z,98061.43
2018-10-18T00:29:34.641Z,98062.75
2018-10-18T00:30:06.312Z,98068.73
2018-10-18T00:30:37.874Z,98070.88
2018-10-18T00:31:09.472Z,98066.19
2018-10-18T00:31:41.051Z,98067.10
2018-10-18T00:32:12.707Z,98067.96
2018-10-18T00:32:44.288Z,98073.11
2018-10-18T00:33:15.867Z,98068.00
2018-10-18T00:33:47.474Z,98067.14
2018-10-18T00:34:19.068Z,98070.17
2018-10-18T00:34:50.669Z,98071.03
2018-10-18T00:35:22.256Z,98069.76
2018-10-18T00:35:53.853Z,98068.91
2018-10-18T00:36:25.463Z,98065.13
2018-10-18T00:36:57.056Z,98069.35
2018-10-18T00:37:28.672Z,98071.95
2018-10-18T00:38:00.292Z,98074.09
2018-10-18T00:38:31.884Z,98066.42
2018-10-18T00:39:03.476Z,98067.77
2018-10-18T00:39:35.065Z,98074.54
2018-10-18T00:40:06.667Z,98072.84
2018-10-18T00:40:38.248Z,98071.99
2018-10-18T00:41:09.840Z,98069.48
2018-10-18T00:41:41.436Z,98076.77
2018-10-18T00:42:13.114Z,98075.91
2018-10-18T00:42:44.674Z,98074.66
2018-10-18T00:43:16.280Z,98072.53
2018-10-18T00:43:47.874Z,98075.14
2018-10-18T00:44:19.502Z,98073.00
2018-10-18T00:44:51.541Z,98073.02
2018-10-18T00:45:23.136Z,98071.33
2018-10-18T00:45:54.730Z,98070.48
2018-10-18T00:46:26.338Z,98073.89
2018-10-18T00:46:57.931Z,98074.36
2018-10-18T00:47:29.525Z,98071.81
2018-10-18T00:48:01.202Z,98071.39
2018-10-18T00:48:32.783Z,98067.98
2018-10-18T00:49:04.375Z,98079.13
2018-10-18T00:49:35.964Z,98069.39
2018-10-18T00:50:07.622Z,98071.91
2018-10-18T00:50:39.167Z,98072.38
2018-10-18T00:51:10.747Z,98075.38
2018-10-18T00:51:42.340Z,98075.39
2018-10-18T00:52:13.951Z,98071.19
2018-10-18T00:52:45.562Z,98068.22
2018-10-18T00:53:17.193Z,98072.05
2018-10-18T00:53:48.799Z,98073.39
2018-10-18T00:54:20.388Z,98071.69
2018-10-18T00:54:51.977Z,98037.23
2018-10-18T00:55:23.576Z,98073.47
2018-10-18T00:55:55.167Z,98070.47
2018-10-18T00:56:26.785Z,98072.20
2018-10-18T00:56:58.385Z,98072.63
2018-10-18T00:57:29.987Z,98074.38
2018-10-18T00:58:01.618Z,98071.40
2018-10-18T00:58:33.212Z,98071.00
2018-10-18T00:59:04.805Z,98068.44
2018-10-18T00:59:36.398Z,98075.27
2018-10-18T01:00:08.034Z,98077.02
2018-10-18T01:00:39.631Z,98066.78
2018-10-18T01:01:11.210Z,98070.20
2018-10-18T01:01:42.805Z,98071.48
2018-10-18T01:02:14.541Z,98071.91
2018-10-18T01:02:46.028Z,98066.80
2018-10-18T01:03:17.651Z,98066.80
2018-10-18T01:03:49.259Z,98072.40
2018-10-18T01:04:20.883Z,98068.13
2018-10-18T01:04:52.480Z,98073.69
2018-10-18T01:05:24.087Z,98068.57
2018-10-18T01:05:55.699Z,98065.16
2018-10-18T01:06:27.281Z,98069.86
2018-10-18T01:06:58.872Z,98072.00
2018-10-18T01:07:30.465Z,98060.48
2018-10-18T01:08:02.097Z,98061.38
2018-10-18T01:08:33.704Z,98067.34
2018-10-18T01:09:05.315Z,98065.64
2018-10-18T01:09:36.926Z,98061.82
2018-10-18T01:10:08.541Z,98066.94
2018-10-18T01:10:40.146Z,98066.09
2018-10-18T01:11:11.741Z,98060.59
2018-10-18T01:11:43.322Z,98065.29
2018-10-18T01:12:15.004Z,98060.61
2018-10-18T01:12:46.571Z,98062.31
2018-10-18T01:13:18.167Z,98061.54
2018-10-18T01:13:49.774Z,98058.05
2018-10-18T01:14:21.354Z,98057.61
2018-10-18T01:14:52.952Z,98057.63
2018-10-18T01:15:24.563Z,98059.34
2018-10-18T01:15:56.156Z,98066.16
2018-10-18T01:16:27.746Z,98059.34
2018-10-18T01:16:59.350Z,98064.08
2018-10-18T01:17:30.954Z,98058.95
2018-10-18T01:18:02.596Z,98063.61
2018-10-18T01:18:34.232Z,98057.71
2018-10-18T01:19:05.811Z,98061.52
2018-10-18T01:19:37.414Z,98066.63
2018-10-18T01:20:09.035Z,98063.17
2018-10-18T01:20:40.645Z,98065.73
2018-10-18T01:21:12.252Z,98063.59
2018-10-18T01:21:43.854Z,98062.32
2018-10-18T01:22:15.462Z,98059.75
2018-10-18T01:22:47.047Z,98064.87
2018-10-18T01:23:18.712Z,98059.33
2018-10-18T01:23:50.308Z,98063.97
2018-10-18T01:24:21.905Z,98060.53
2018-10-18T01:24:53.513Z,98069.92
2018-10-18T01:25:25.108Z,98061.38
2018-10-18T01:25:56.754Z,98060.95
2018-10-18T01:26:28.303Z,98059.25
2018-10-18T01:26:59.897Z,98063.02
2018-10-18T01:27:31.479Z,98057.05
2018-10-18T01:28:03.059Z,98060.41
2018-10-18T01:28:34.693Z,98025.44
2018-10-18T01:29:06.288Z,98054.77
2018-10-18T01:29:37.895Z,98057.67
2018-10-18T01:30:09.585Z,98058.05
2018-10-18T01:30:41.128Z,98055.89
2018-10-18T01:31:12.731Z,98029.05
2018-10-18T01:31:44.333Z,98050.70
2018-10-18T01:32:15.990Z,98054.06
2018-10-18T01:32:47.555Z,98058.31
2018-10-18T01:33:19.169Z,98049.78
2018-10-18T01:33:50.779Z,98056.13
2018-10-18T01:34:22.359Z,98058.22
2018-10-18T01:34:53.954Z,98060.73
2018-10-18T01:35:25.562Z,98057.31
2018-10-18T01:35:57.182Z,98055.16
2018-10-18T01:36:28.779Z,98053.83
2018-10-18T01:37:00.390Z,98058.07
2018-10-18T01:37:31.970Z,98055.51
2018-10-18T01:38:03.611Z,98058.07
2018-10-18T01:38:35.204Z,98055.51
2018-10-18T01:39:06.806Z,98054.19
2018-10-18T01:39:38.411Z,98052.91
2018-10-18T01:40:09.998Z,98056.36
2018-10-18T01:40:41.595Z,98056.75
2018-10-18T01:41:13.188Z,98055.88
2018-10-18T01:41:44.780Z,98057.58
2018-10-18T01:42:16.453Z,98055.86
2018-10-18T01:42:48.023Z,98055.86
2018-10-18T01:43:19.655Z,98052.45
2018-10-18T01:43:51.286Z,98055.82
2018-10-18T01:44:22.864Z,98052.87
2018-10-18T01:44:54.457Z,98056.24
2018-10-18T01:45:26.062Z,98054.10
2018-10-18T01:45:57.673Z,98053.27
2018-10-18T01:46:29.272Z,98058.80
2018-10-18T01:47:00.875Z,98055.81
2018-10-18T01:47:32.459Z,98053.25
2018-10-18T01:48:04.101Z,98049.33
2018-10-18T01:48:35.728Z,98050.48
2018-10-18T01:49:07.330Z,98050.03
2018-10-18T01:49:38.911Z,98049.17
2018-10-18T01:50:10.634Z,98051.23
2018-10-18T01:50:42.151Z,98044.36
2018-10-18T01:51:13.740Z,98043.92
2018-10-18T01:51:45.343Z,98044.78
2018-10-18T01:52:16.937Z,98042.21
2018-10-18T01:52:48.528Z,98042.63
2018-10-18T01:53:20.130Z,98042.20
2018-10-18T01:53:51.767Z,98041.35
2018-10-18T01:54:23.379Z,98039.66
2018-10-18T01:54:54.982Z,98045.20
2018-10-18T01:55:26.595Z,98043.92
2018-10-18T01:55:58.222Z,98051.17
2018-10-18T01:56:29.831Z,98041.29
2018-10-18T01:57:01.453Z,98044.67
2018-10-18T01:57:33.042Z,98044.61
2018-10-18T01:58:04.646Z,98048.01
2018-10-18T01:58:36.264Z,98043.26
2018-10-18T01:59:07.871Z,98046.23
2018-10-18T01:59:39.460Z,98040.70
2018-10-18T02:00:11.097Z,98045.46
2018-10-18T02:00:42.698Z,98042.41
2018-10-18T02:01:14.304Z,98047.59
2018-10-18T02:01:45.896Z,98046.75
2018-10-18T02:02:17.539Z,98040.00
2018-10-18T02:02:49.122Z,98043.39
2018-10-18T02:03:20.727Z,98045.95
2018-10-18T02:03:52.343Z,98045.48
2018-10-18T02:04:23.933Z,98050.58
2018-10-18T02:04:55.524Z,98045.47
2018-10-18T02:05:27.127Z,98046.77
2018-10-18T02:05:58.742Z,98037.86
2018-10-18T02:06:30.331Z,98048.11
2018-10-18T02:07:01.924Z,98044.29
2018-10-18T02:07:33.527Z,98045.20
2018-10-18T02:08:05.162Z,98040.52
2018-10-18T02:08:36.794Z,98047.34
2018-10-18T02:09:08.404Z,98046.06
2018-10-18T02:09:40.006Z,98041.36
2018-10-18T02:10:11.596Z,98041.34
2018-10-18T02:10:43.200Z,98040.06
2018-10-18T02:11:14.793Z,98043.90
2018-10-18T02:11:46.433Z,98043.01
2018-10-18T02:12:18.074Z,98045.19
2018-10-18T02:12:49.646Z,98040.07
2018-10-18T02:13:21.236Z,98048.61
2018-10-18T02:13:52.861Z,98043.91
2018-10-18T02:14:24.448Z,98046.03
2018-10-18T02:14:56.042Z,98045.19
2018-10-18T02:15:27.671Z,98042.21
2018-10-18T02:15:59.309Z,98046.05
2018-10-18T02:16:30.905Z,98041.80
2018-10-18T02:17:02.500Z,98047.39
2018-10-18T02:17:34.096Z,98045.28
2018-10-18T02:18:05.717Z,98046.13
2018-10-18T02:18:37.367Z,98045.34
2018-10-18T02:19:09.041Z,98039.83
2018-10-18T02:19:40.624Z,98042.86
2018-10-18T02:20:12.217Z,98036.96
2018-10-18T02:20:43.812Z,98037.77
2018-10-18T02:21:15.414Z,98046.80
2018-10-18T02:21:46.990Z,98042.16
2018-10-18T02:22:18.585Z,98043.00
2018-10-18T02:22:50.186Z,98038.32
2018-10-18T02:23:21.786Z,98015.43
2018-10-18T02:23:53.454Z,98041.01
2018-10-18T02:24:25.035Z,98048.27
2018-10-18T02:24:56.646Z,98038.03
2018-10-18T02:25:28.249Z,98041.08
2018-10-18T02:25:59.836Z,98011.83
2018-10-18T02:26:31.438Z,98046.28
2018-10-18T02:27:03.037Z,98046.29
2018-10-18T02:27:34.633Z,98045.42
2018-10-18T02:28:06.224Z,98037.81
2018-10-18T02:28:37.824Z,98040.39
2018-10-18T02:29:09.440Z,98042.11
2018-10-18T02:29:41.028Z,98042.16
2018-10-18T02:30:12.663Z,98039.61
2018-10-18T02:30:44.251Z,98041.76
2018-10-18T02:31:15.849Z,98040.91
2018-10-18T02:31:47.440Z,98040.97
2018-10-18T02:32:19.033Z,98040.98
2018-10-18T02:32:50.619Z,98041.84
2018-10-18T02:33:22.216Z,98041.83
2018-10-18T02:33:53.847Z,98040.97
2018-10-18T02:34:25.471Z,98038.39
2018-10-18T02:34:57.080Z,98047.37
2018-10-18T02:35:28.659Z,98041.83
2018-10-18T02:36:00.317Z,98037.13
2018-10-18T02:36:31.912Z,98042.26
2018-10-18T02:37:03.527Z,98038.47
2018-10-18T02:37:35.128Z,98041.84
2018-10-18T02:38:06.730Z,98038.42
2018-10-18T02:38:38.324Z,98038.05
2018-10-18T02:39:09.940Z,98042.31
2018-10-18T02:39:41.550Z,98034.63
2018-10-18T02:40:13.158Z,98038.90
2018-10-18T02:40:44.738Z,98034.64
2018-10-18T02:41:16.329Z,98035.50
2018-10-18T02:41:47.923Z,98037.64
2018-10-18T02:42:19.602Z,98036.80
2018-10-18T02:42:51.133Z,98036.42
2018-10-18T02:43:22.725Z,98030.03
2018-10-18T02:43:54.328Z,98032.59
2018-10-18T02:44:25.944Z,98028.77
2018-10-18T02:44:57.566Z,98034.31
2018-10-18T02:45:29.172Z,98029.25
2018-10-18T02:46:00.779Z,98031.80
2018-10-18T02:46:32.369Z,98028.82
2018-10-18T02:47:03.950Z,98035.22
2018-10-18T02:47:35.554Z,98027.55
2018-10-18T02:48:07.202Z,98033.46
2018-10-18T02:48:38.803Z,98032.58
2018-10-18T02:49:10.420Z,98032.53
2018-10-18T02:49:42.022Z,98027.38
2018-10-18T02:50:13.608Z,98032.42
2018-10-18T02:50:45.206Z,98023.77
2018-10-18T02:51:16.800Z,98028.53
2018-10-18T02:51:48.392Z,98000.20
2018-10-18T02:52:19.995Z,98022.06
2018-10-18T02:52:51.589Z,98024.79
2018-10-18T02:53:23.174Z,98023.66
2018-10-18T02:53:54.783Z,98029.20
2018-10-18T02:54:26.433Z,98029.61
2018-10-18T02:54:58.025Z,98024.45
2018-10-18T02:55:29.602Z,98021.45
2018-10-18T02:56:01.196Z,98024.86
2018-10-18T02:56:32.803Z,98023.58
2018-10-18T02:57:04.410Z,98026.98
2018-10-18T02:57:36.020Z,98021.42
2018-10-18T02:58:07.621Z,97961.43
2018-10-18T02:58:39.222Z,98023.14
2018-10-18T02:59:10.871Z,98024.84
2018-10-18T02:59:42.478Z,98022.71
2018-10-18T03:00:14.132Z,98019.73
2018-10-18T03:00:45.706Z,97994.22
2018-10-18T03:01:17.302Z,98019.73
2018-10-18T03:01:48.893Z,98018.41
2018-10-18T03:02:20.488Z,98023.48
2018-10-18T03:02:52.085Z,98020.88
2018-10-18T03:03:23.674Z,98021.23
2018-10-18T03:03:55.273Z,98022.49
2018-10-18T03:04:26.923Z,98023.34
2018-10-18T03:04:58.522Z,98025.05
2018-10-18T03:05:30.114Z,98020.28
2018-10-18T03:06:01.755Z,98024.92
2018-10-18T03:06:33.371Z,98023.65
2018-10-18T03:07:04.953Z,98023.22
2018-10-18T03:07:36.548Z,98023.64
2018-10-18T03:08:08.140Z,98023.20
2018-10-18T03:08:39.745Z,98026.61
2018-10-18T03:09:11.369Z,98023.14
2018-10-18T03:09:42.984Z,98030.80
2018-10-18T03:10:14.567Z,98030.78
2018-10-18T03:10:46.161Z,98027.33
2018-10-18T03:11:17.767Z,98027.73
2018-10-18T03:11:49.371Z,98024.74
2018-10-18T03:12:21.002Z,98034.08
2018-10-18T03:12:52.589Z,98028.95
2018-10-18T03:13:24.208Z,98029.75
2018-10-18T03:13:55.796Z,98031.02
2018-10-18T03:14:27.418Z,98025.41
2018-10-18T03:14:59.021Z,98028.38
2018-10-18T03:15:30.627Z,98030.42
2018-10-18T03:16:02.301Z,98026.53
2018-10-18T03:16:33.853Z,98026.95
2018-10-18T03:17:05.463Z,98033.75
2018-10-18T03:17:37.064Z,98033.31
2018-10-18T03:18:08.672Z,98027.71
2018-10-18T03:18:40.291Z,98029.83
2018-10-18T03:19:11.898Z,98032.34
2018-10-18T03:19:43.512Z,98026.32
2018-10-18T03:20:15.117Z,98026.75
2018-10-18T03:20:46.708Z,98027.52
2018-10-18T03:21:18.300Z,98028.73
2018-10-18T03:21:49.903Z,98029.13
2018-10-18T03:22:21.499Z,98031.61
2018-10-18T03:22:53.089Z,98029.42
2018-10-18T03:23:24.694Z,98028.55
2018-10-18T03:23:56.355Z,98033.66
2018-10-18T03:24:27.964Z,98026.77
2018-10-18T03:24:59.560Z,98032.31
2018-10-18T03:25:31.152Z,98027.62
2018-10-18T03:26:02.735Z,98034.00
2018-10-18T03:26:34.339Z,98035.23
2018-10-18T03:27:05.932Z,98035.21
2018-10-18T03:27:37.524Z,98034.36
2018-10-18T03:28:09.130Z,98035.20
2018-10-18T03:28:40.736Z,98035.59
2018-10-18T03:29:12.329Z,98032.59
2018-10-18T03:29:43.929Z,98030.89
2018-10-18T03:30:15.617Z,98034.72
2018-10-18T03:30:47.162Z,98039.44
2018-10-18T03:31:18.775Z,98031.80
2018-10-18T03:31:50.389Z,98035.23
2018-10-18T03:32:21.991Z,98037.38
2018-10-18T03:32:53.598Z,98036.58
2018-10-18T03:33:25.196Z,98065.63
2018-10-18T03:33:56.802Z,98032.39
2018-10-18T03:34:28.393Z,98035.82
2018-10-18T03:34:59.989Z,98034.11
2018-10-18T03:35:31.575Z,98035.44
2018-10-18T03:36:03.277Z,98036.33
2018-10-18T03:36:34.818Z,98034.61
2018-10-18T03:37:06.422Z,98040.60
2018-10-18T03:37:37.999Z,98041.50
2018-10-18T03:38:09.603Z,98038.95
2018-10-18T03:38:41.192Z,98038.16
2018-10-18T03:39:12.781Z,98044.14
2018-10-18T03:39:44.396Z,98046.28
2018-10-18T03:40:15.995Z,98042.45
2018-10-18T03:40:47.608Z,98042.88
2018-10-18T03:41:19.238Z,98046.77
2018-10-18T03:41:50.790Z,98047.20
2018-10-18T03:42:22.380Z,98048.08
2018-10-18T03:42:53.968Z,98044.66
2018-10-18T03:43:25.557Z,98043.88
2018-10-18T03:43:57.153Z,98048.55
2018-10-18T03:44:28.759Z,98045.16
2018-10-18T03:45:00.377Z,98048.55
2018-10-18T03:45:31.987Z,98046.42
2018-10-18T03:46:03.591Z,98044.72
2018-10-18T03:46:35.185Z,98039.67
2018-10-18T03:47:06.776Z,98048.19
2018-10-18T03:47:38.364Z,98049.90
2018-10-18T03:48:09.982Z,98044.84
2018-10-18T03:48:41.586Z,98045.23
2018-10-18T03:49:13.195Z,98049.95
2018-10-18T03:49:44.805Z,98050.34
2018-10-18T03:50:16.386Z,98053.38
2018-10-18T03:50:47.976Z,98048.25
2018-10-18T03:51:19.589Z,98046.12
2018-10-18T03:51:51.206Z,98050.83
2018-10-18T03:52:22.814Z,98045.28
2018-10-18T03:52:54.409Z,98048.27
2018-10-18T03:53:26.015Z,98050.33
2018-10-18T03:53:57.626Z,98048.61
2018-10-18T03:54:29.239Z,98051.98
2018-10-18T03:55:00.865Z,98049.03
2018-10-18T03:55:32.457Z,98053.27
2018-10-18T03:56:04.038Z,98054.16
2018-10-18T03:56:35.628Z,98053.31
2018-10-18T03:57:07.239Z,98044.79
2018-10-18T03:57:38.851Z,98048.67
2018-10-18T03:58:10.431Z,98053.38
2018-10-18T03:58:42.024Z,98054.23
2018-10-18T03:59:13.627Z,98051.67
2018-10-18T03:59:45.227Z,98055.47
2018-10-18T04:00:16.980Z,98052.95
2018-10-18T04:00:48.515Z,98046.98
2018-10-18T04:01:20.123Z,98049.98
2018-10-18T04:01:51.716Z,98050.46
2018-10-18T04:02:23.318Z,98050.47
2018-10-18T04:02:54.912Z,98046.63
2018-10-18T04:03:26.504Z,98048.41
2018-10-18T04:03:58.091Z,98054.81
2018-10-18T04:04:29.684Z,98049.22
2018-10-18T04:05:01.312Z,98055.20
2018-10-18T04:05:32.907Z,98052.68
2018-10-18T04:06:04.578Z,98053.11
2018-10-18T04:06:36.147Z,98046.77
2018-10-18T04:07:07.735Z,98052.28
2018-10-18T04:07:39.324Z,98054.84
2018-10-18T04:08:11.110Z,98053.61
2018-10-18T04:08:42.704Z,98052.33
2018-10-18T04:09:14.284Z,98054.05
2018-10-18T04:09:45.903Z,98027.21
2018-10-18T04:10:17.529Z,98053.20
2018-10-18T04:10:49.121Z,98052.83
2018-10-18T04:11:20.717Z,98051.13
2018-10-18T04:11:52.358Z,98055.83
2018-10-18T04:12:24.002Z,98057.96
2018-10-18T04:12:55.658Z,98052.00
2018-10-18T04:13:27.187Z,98057.11
2018-10-18T04:13:58.781Z,98053.29
2018-10-18T04:14:30.391Z,98058.88
2018-10-18T04:15:02.017Z,98026.06
2018-10-18T04:15:33.613Z,98058.47
2018-10-18T04:16:05.222Z,98061.03
2018-10-18T04:16:36.803Z,98059.32
2018-10-18T04:17:08.407Z,98059.74
2018-10-18T04:17:40.021Z,98059.33
2018-10-18T04:18:11.691Z,98056.38
2018-10-18T04:18:43.260Z,98055.54
2018-10-18T04:19:14.881Z,98053.84
2018-10-18T04:19:46.481Z,98056.83
2018-10-18T04:20:18.112Z,98054.77
2018-10-18T04:20:49.718Z,98057.27
2018-10-18T04:21:21.316Z,98057.70
2018-10-18T04:21:52.925Z,98050.50
2018-10-18T04:22:24.534Z,98058.17
2018-10-18T04:22:56.132Z,98058.55
2018-10-18T04:23:27.724Z,98053.48
2018-10-18T04:23:59.317Z,98052.20
2018-10-18T04:24:30.947Z,98056.47
2018-10-18T04:25:02.536Z,98058.59
2018-10-18T04:25:34.210Z,98062.88
2018-10-18T04:26:05.781Z,98062.45
2018-10-18T04:26:37.373Z,98059.05
2018-10-18T04:27:08.979Z,98056.50
2018-10-18T04:27:40.569Z,98053.94
2018-10-18T04:28:12.158Z,98059.48
2018-10-18T04:28:43.767Z,98060.76
2018-10-18T04:29:15.357Z,98057.78
2018-10-18T04:29:46.949Z,98056.55
2018-10-18T04:30:18.649Z,98057.40
2018-10-18T04:30:50.223Z,98056.11
2018-10-18T04:31:21.814Z,98055.27
2018-10-18T04:31:53.406Z,98058.68
2018-10-18T04:32:25.004Z,98048.88
2018-10-18T04:32:56.621Z,98054.43
2018-10-18T04:33:28.230Z,98062.53
2018-10-18T04:33:59.806Z,98053.57
2018-10-18T04:34:31.431Z,98051.00
2018-10-18T04:35:03.037Z,98056.98
2018-10-18T04:35:34.657Z,98061.25
2018-10-18T04:36:06.295Z,98054.42
2018-10-18T04:36:37.872Z,98059.11
2018-10-18T04:37:09.454Z,98055.70
2018-10-18T04:37:41.083Z,98057.83
2018-10-18T04:38:12.681Z,98051.92
2018-10-18T04:38:44.288Z,98053.15
2018-10-18T04:39:15.884Z,98051.06
2018-10-18T04:39:47.495Z,98060.02
2018-10-18T04:40:19.124Z,98056.20
2018-10-18T04:40:50.703Z,98055.35
2018-10-18T04:41:22.315Z,98048.97
2018-10-18T04:41:53.923Z,98052.80
2018-10-18T04:42:25.528Z,98060.05
2018-10-18T04:42:57.124Z,98050.23
2018-10-18T04:43:28.726Z,98055.77
2018-10-18T04:44:00.334Z,98051.09
2018-10-18T04:44:31.943Z,98049.37
2018-10-18T04:45:03.551Z,98051.92
2018-10-18T04:45:35.183Z,98057.03
2018-10-18T04:46:06.818Z,98054.47
2018-10-18T04:46:38.417Z,98052.72
2018-10-18T04:47:10.064Z,98055.69
2018-10-18T04:47:41.761Z,98053.50
2018-10-18T04:48:13.326Z,98053.91
2018-10-18T04:48:44.958Z,98046.66
2018-10-18T04:49:16.526Z,98049.15
2018-10-18T04:49:48.122Z,98050.80
2018-10-18T04:50:19.755Z,98051.20
2018-10-18T04:50:51.344Z,98051.14
2018-10-18T04:51:22.936Z,98055.27
2018-10-18T04:51:54.543Z,98053.47
2018-10-18T04:52:26.139Z,98048.69
2018-10-18T04:52:57.746Z,98052.45
2018-10-18T04:53:29.328Z,98052.84
2018-10-18T04:54:00.911Z,98053.25
2018-10-18T04:54:32.510Z,98054.48
2018-10-18T04:55:04.172Z,98055.31
2018-10-18T04:55:35.768Z,98052.70
2018-10-18T04:56:07.374Z,98054.81
2018-10-18T04:56:38.977Z,98054.38
2018-10-18T04:57:10.577Z,98055.20
2018-10-18T04:57:42.196Z,98054.76
2018-10-18T04:58:13.806Z,98052.19
2018-10-18T04:58:45.410Z,98053.45
2018-10-18T04:59:17.009Z,98052.59
2018-10-18T04:59:48.623Z,98051.73
2018-10-18T05:00:20.221Z,98049.19
2018-10-18T05:00:51.843Z,98048.77
2018-10-18T05:01:23.565Z,98050.91
2018-10-18T05:01:55.058Z,98047.94
2018-10-18T05:02:26.680Z,98049.64
2018-10-18T05:02:58.286Z,98053.47
2018-10-18T05:03:29.882Z,98053.45
2018-10-18T05:04:01.467Z,98055.59
2018-10-18T05:04:33.050Z,98051.33
2018-10-18T05:05:04.650Z,98055.16
2018-10-18T05:05:36.283Z,98055.59
2018-10-18T05:06:07.877Z,98050.45
2018-10-18T05:06:39.472Z,98051.31
2018-10-18T05:07:11.154Z,98058.14
2018-10-18T05:07:42.696Z,98054.73
2018-10-18T05:08:14.300Z,98056.02
2018-10-18T05:08:45.915Z,98061.13
2018-10-18T05:09:17.509Z,98060.72
2018-10-18T05:09:49.115Z,98087.19
2018-10-18T05:10:20.712Z,98056.90
2018-10-18T05:10:52.315Z,98057.75
2018-10-18T05:11:23.942Z,98063.71
2018-10-18T05:11:55.550Z,98063.30
2018-10-18T05:12:27.223Z,98061.64
2018-10-18T05:12:58.815Z,98062.50
2018-10-18T05:13:30.395Z,98059.95
2018-10-18T05:14:02.001Z,98063.79
2018-10-18T05:14:33.606Z,98067.63
2018-10-18T05:15:05.210Z,98063.36
2018-10-18T05:15:36.819Z,98066.35
2018-10-18T05:16:08.412Z,98068.91
2018-10-18T05:16:40.015Z,98065.09
2018-10-18T05:17:11.604Z,98064.27
2018-10-18T05:17:43.196Z,98060.88
2018-10-18T05:18:14.802Z,98067.69
2018-10-18T05:18:46.386Z,98068.98
2018-10-18T05:19:18.111Z,98069.84
2018-10-18T05:19:49.620Z,98064.31
2018-10-18T05:20:21.212Z,98064.79
2018-10-18T05:20:52.828Z,98073.27
2018-10-18T05:21:24.429Z,98075.44
2018-10-18T05:21:56.037Z,98072.88
2018-10-18T05:22:27.624Z,98072.45
2018-10-18T05:22:59.231Z,98076.31
2018-10-18T05:23:30.824Z,98069.03
2018-10-18T05:24:02.423Z,98077.15
2018-10-18T05:24:34.031Z,98080.13
2018-10-18T05:25:05.703Z,98075.09
2018-10-18T05:25:37.300Z,98080.63
2018-10-18T05:26:08.902Z,98078.92
2018-10-18T05:26:40.499Z,98079.36
2018-10-18T05:27:12.088Z,98078.92
2018-10-18T05:27:43.667Z,98085.33
2018-10-18T05:28:15.261Z,98083.61
2018-10-18T05:28:46.852Z,98087.88
2018-10-18T05:29:18.452Z,98087.47
2018-10-18T05:29:50.054Z,98086.19
2018-10-18T05:30:21.644Z,98083.20
2018-10-18T05:30:53.243Z,98083.74
2018-10-18T05:31:24.897Z,98089.17
2018-10-18T05:31:56.506Z,98086.25
2018-10-18T05:32:28.092Z,98099.89
2018-10-18T05:32:59.695Z,98096.50
2018-10-18T05:33:31.288Z,98095.27
2018-10-18T05:34:02.895Z,98096.13
2018-10-18T05:34:34.488Z,98090.17
2018-10-18T05:35:06.076Z,98095.29
2018-10-18T05:35:37.668Z,98046.20
2018-10-18T05:36:09.275Z,98093.20
2018-10-18T05:36:40.874Z,98099.20
2018-10-18T05:37:12.563Z,98099.27
2018-10-18T05:37:44.126Z,98100.98
2018-10-18T05:38:15.724Z,98094.17
2018-10-18T05:38:47.303Z,98097.58
2018-10-18T05:39:18.906Z,98096.36
2018-10-18T05:39:50.505Z,98098.50
2018-10-18T05:40:22.109Z,98101.48
2018-10-18T05:40:53.687Z,98101.06
2018-10-18T05:41:25.361Z,98101.06
2018-10-18T05:41:56.914Z,98101.53
2018-10-18T05:42:28.506Z,98102.84
2018-10-18T05:43:00.147Z,98104.12
2018-10-18T05:43:31.749Z,98071.36
2018-10-18T05:44:03.355Z,98103.70
2018-10-18T05:44:34.944Z,98103.70
2018-10-18T05:45:06.547Z,98107.11
2018-10-18T05:45:38.146Z,98106.30
2018-10-18T05:46:09.753Z,98104.23
2018-10-18T05:46:41.424Z,98105.47
2018-10-18T05:47:13.029Z,98107.61
2018-10-18T05:47:44.617Z,98109.73
2018-10-18T05:48:16.218Z,98111.07
2018-10-18T05:48:47.822Z,98108.16
2018-10-18T05:49:19.438Z,98111.50
2018-10-18T05:49:51.028Z,98109.39
2018-10-18T05:50:22.621Z,98112.85
2018-10-18T05:50:54.213Z,98111.15
2018-10-18T05:51:25.847Z,98112.00
2018-10-18T05:51:57.444Z,98118.41
2018-10-18T05:52:29.023Z,98110.78
2018-10-18T05:53:00.653Z,98116.75
2018-10-18T05:53:32.291Z,98108.67
2018-10-18T05:54:04.071Z,98113.36
2018-10-18T05:54:35.495Z,98115.08
2018-10-18T05:55:07.141Z,98116.78
2018-10-18T05:55:38.724Z,98110.39
2018-10-18T05:56:10.309Z,98118.53
2018-10-18T05:56:41.985Z,98114.69
2018-10-18T05:57:13.566Z,98117.69
2018-10-18T05:57:45.146Z,98115.98
2018-10-18T05:58:16.740Z,98116.42
2018-10-18T05:58:48.336Z,98114.34
2018-10-18T05:59:19.943Z,98116.85
2018-10-18T05:59:51.540Z,98118.17
2018-10-18T06:00:23.217Z,98116.91
2018-10-18T06:00:54.781Z,98120.74
2018-10-18T06:01:26.426Z,98120.32
2018-10-18T06:01:58.036Z,98121.67
2018-10-18T06:02:29.618Z,98122.89
2018-10-18T06:03:01.227Z,98119.05
2018-10-18T06:03:32.816Z,98124.15
2018-10-18T06:04:04.419Z,98124.58
2018-10-18T06:04:36.012Z,98124.58
2018-10-18T06:05:07.605Z,98125.43
2018-10-18T06:05:39.192Z,98124.97
2018-10-18T06:06:10.803Z,98125.81
2018-10-18T06:06:42.420Z,98125.81
2018-10-18T06:07:14.114Z,98130.07
2018-10-18T06:07:45.654Z,98124.09
2018-10-18T06:08:17.308Z,98130.97
2018-10-18T06:08:48.895Z,98128.41
2018-10-18T06:09:20.490Z,98129.69
2018-10-18T06:09:52.119Z,98130.08
2018-10-18T06:10:23.793Z,98133.47
2018-10-18T06:10:55.325Z,98126.63